createdAt,value
2019-01-02T00:00:09.524Z,6.47
2019-01-02T00:02:38.044Z,6.57
2019-01-02T00:05:07.108Z,5.70
2019-01-02T00:07:35.524Z,5.73
2019-01-02T00:10:04.492Z,6.23
2019-01-02T00:12:32.777Z,7.43
2019-01-02T00:15:01.006Z,7.73
2019-01-02T00:17:29.244Z,6.07
2019-01-02T00:19:57.639Z,7.00
2019-01-02T00:22:26.120Z,6.20
2019-01-02T00:24:54.628Z,6.27
2019-01-02T00:27:22.878Z,6.83
2019-01-02T00:29:51.484Z,6.47
2019-01-02T00:32:19.729Z,6.13
2019-01-02T00:34:47.972Z,8.73
2019-01-02T00:37:16.234Z,7.00
2019-01-02T00:39:44.547Z,6.13
2019-01-02T00:42:12.767Z,6.17
2019-01-02T00:44:41.012Z,6.77
2019-01-02T00:47:09.541Z,6.37
2019-01-02T00:49:37.851Z,6.27
2019-01-02T00:52:06.103Z,5.87
2019-01-02T00:54:34.577Z,5.83
2019-01-02T00:57:02.791Z,7.20
2019-01-02T00:59:31.048Z,6.33
2019-01-02T01:01:59.287Z,5.47
2019-01-02T01:04:27.537Z,5.80
2019-01-02T01:06:55.754Z,4.63
2019-01-02T01:09:24.359Z,7.07
2019-01-02T01:11:52.615Z,7.00
2019-01-02T01:14:21.116Z,7.73
2019-01-02T01:16:49.349Z,6.17
2019-01-02T01:19:17.975Z,4.83
2019-01-02T01:21:46.439Z,6.83
2019-01-02T01:24:14.907Z,6.23
2019-01-02T01:26:43.130Z,8.80
2019-01-02T01:29:11.367Z,6.47
2019-01-02T01:31:39.969Z,5.80
2019-01-02T01:34:08.209Z,6.93
2019-01-02T01:36:36.430Z,5.27
2019-01-02T01:39:06.900Z,5.27
2019-01-02T01:41:35.403Z,5.33
2019-01-02T01:44:03.622Z,5.33
2019-01-02T01:46:31.863Z,6.90
2019-01-02T01:49:00.113Z,5.60
2019-01-02T01:51:28.534Z,5.47
2019-01-02T01:53:56.759Z,4.83
2019-01-02T01:56:25.399Z,6.13
2019-01-02T01:58:53.640Z,6.10
2019-01-02T02:01:21.895Z,6.83
2019-01-02T02:03:50.511Z,5.60
2019-01-02T02:06:18.736Z,5.57
2019-01-02T02:08:46.967Z,6.13
2019-01-02T02:11:15.188Z,6.47
2019-01-02T02:13:43.420Z,7.10
2019-01-02T02:16:11.938Z,6.33
2019-01-02T02:18:40.256Z,6.50
2019-01-02T02:21:08.728Z,5.37
2019-01-02T02:23:36.951Z,5.53
2019-01-02T02:26:05.197Z,5.60
2019-01-02T02:28:33.818Z,6.73
2019-01-02T02:31:02.048Z,4.40
2019-01-02T02:33:30.947Z,6.10
2019-01-02T02:35:59.581Z,6.17
2019-01-02T02:38:28.380Z,5.67
2019-01-02T02:40:56.956Z,5.57
2019-01-02T02:43:25.440Z,8.23
2019-01-02T02:45:53.655Z,5.27
2019-01-02T02:48:22.261Z,4.33
2019-01-02T02:50:50.879Z,7.30
2019-01-02T02:53:19.634Z,5.10
2019-01-02T02:55:48.161Z,6.70
2019-01-02T02:58:16.756Z,5.70
2019-01-02T03:00:45.271Z,5.83
2019-01-02T03:03:13.887Z,4.47
2019-01-02T03:05:42.145Z,4.90
2019-01-02T03:08:10.354Z,6.37
2019-01-02T03:10:38.976Z,4.63
2019-01-02T03:13:07.836Z,5.07
2019-01-02T03:15:36.354Z,4.83
2019-01-02T03:18:04.956Z,4.53
2019-01-02T03:20:33.436Z,4.23
2019-01-02T03:23:01.683Z,6.37
2019-01-02T03:25:30.285Z,4.73
2019-01-02T03:27:58.799Z,4.27
2019-01-02T03:30:27.292Z,4.87
2019-01-02T03:32:55.911Z,3.77
2019-01-02T03:35:24.424Z,5.40
2019-01-02T03:37:52.668Z,3.47
2019-01-02T03:40:20.912Z,4.20
2019-01-02T03:42:49.173Z,4.50
2019-01-02T03:45:18.639Z,4.93
2019-01-02T03:47:46.852Z,5.47
2019-01-02T03:50:17.251Z,5.23
2019-01-02T03:52:45.468Z,4.57
2019-01-02T03:55:13.684Z,4.37
2019-01-02T03:57:41.963Z,4.30
2019-01-02T04:00:18.264Z,3.93
2019-01-02T04:02:46.500Z,5.47
2019-01-02T04:05:20.384Z,3.93
2019-01-02T04:07:51.874Z,4.23
2019-01-02T04:10:20.089Z,4.97
2019-01-02T04:12:48.335Z,4.43
2019-01-02T04:15:16.578Z,5.77
2019-01-02T04:17:44.809Z,4.33
2019-01-02T04:20:13.272Z,4.50
2019-01-02T04:22:41.511Z,4.30
2019-01-02T04:25:09.736Z,5.10
2019-01-02T04:27:37.976Z,3.40
2019-01-02T04:30:12.043Z,4.40
2019-01-02T04:32:40.262Z,4.33
2019-01-02T04:35:08.504Z,5.03
2019-01-02T04:37:36.969Z,5.00
2019-01-02T04:40:08.583Z,4.63
2019-01-02T04:42:37.056Z,6.07
2019-01-02T04:45:07.032Z,4.23
2019-01-02T04:47:35.292Z,4.00
2019-01-02T04:50:05.937Z,4.10
2019-01-02T04:52:34.189Z,4.87
2019-01-02T04:55:02.411Z,4.27
2019-01-02T04:57:30.702Z,5.37
2019-01-02T04:59:58.917Z,3.50
2019-01-02T05:02:27.179Z,4.67
2019-01-02T05:04:55.388Z,5.43
2019-01-02T05:07:23.611Z,4.50
2019-01-02T05:09:51.835Z,3.83
2019-01-02T05:12:20.117Z,5.30
2019-01-02T05:14:48.376Z,5.40
2019-01-02T05:17:16.628Z,5.03
2019-01-02T05:19:44.849Z,4.57
2019-01-02T05:22:13.085Z,5.50
2019-01-02T05:24:41.337Z,3.67
2019-01-02T05:27:09.547Z,4.60
2019-01-02T05:29:37.782Z,5.33
2019-01-02T05:32:06.044Z,3.57
2019-01-02T05:34:34.268Z,4.70
2019-01-02T05:37:02.493Z,3.40
2019-01-02T05:39:30.736Z,6.17
2019-01-02T05:41:58.979Z,4.13
2019-01-02T05:44:27.243Z,5.10
2019-01-02T05:46:55.495Z,5.87
2019-01-02T05:49:23.949Z,4.57
2019-01-02T05:51:52.291Z,3.50
2019-01-02T05:54:20.496Z,4.13
2019-01-02T05:56:48.727Z,3.00
2019-01-02T05:59:16.973Z,5.60
2019-01-02T06:01:45.192Z,4.57
2019-01-02T06:04:13.437Z,4.23
2019-01-02T06:06:41.683Z,4.17
2019-01-02T06:09:09.986Z,3.20
2019-01-02T06:11:38.199Z,5.30
2019-01-02T06:14:06.453Z,3.00
2019-01-02T06:16:34.668Z,4.27
2019-01-02T06:19:02.904Z,3.13
2019-01-02T06:21:31.146Z,3.50
2019-01-02T06:23:59.591Z,5.57
2019-01-02T06:26:27.835Z,3.67
2019-01-02T06:28:56.071Z,3.77
2019-01-02T06:31:24.525Z,3.13
2019-01-02T06:33:52.767Z,4.63
2019-01-02T06:36:20.985Z,3.63
2019-01-02T06:38:49.232Z,3.70
2019-01-02T06:41:17.480Z,5.43
2019-01-02T06:43:45.691Z,3.13
2019-01-02T06:46:13.946Z,5.07
2019-01-02T06:48:42.433Z,4.70
2019-01-02T06:51:10.673Z,3.40
2019-01-02T06:53:38.920Z,4.77
2019-01-02T06:56:07.136Z,4.63
2019-01-02T06:58:35.372Z,4.97
2019-01-02T07:01:03.680Z,6.13
2019-01-02T07:03:31.919Z,4.20
2019-01-02T07:06:00.376Z,4.20
2019-01-02T07:08:28.603Z,3.53
2019-01-02T07:10:56.851Z,4.23
2019-01-02T07:13:25.399Z,4.60
2019-01-02T07:15:53.649Z,3.67
2019-01-02T07:18:22.105Z,2.80
2019-01-02T07:20:50.349Z,5.00
2019-01-02T07:23:18.594Z,5.00
2019-01-02T07:25:46.858Z,3.67
2019-01-02T07:28:15.082Z,4.13
2019-01-02T07:30:43.312Z,3.47
2019-01-02T07:33:11.869Z,4.07
2019-01-02T07:35:43.375Z,4.17
2019-01-02T07:38:17.504Z,4.73
2019-01-02T07:41:11.168Z,3.43
2019-01-02T07:43:57.245Z,3.27
2019-01-02T07:46:53.928Z,4.07
2019-01-02T07:49:43.365Z,3.83
2019-01-02T07:52:17.748Z,3.13
2019-01-02T07:54:52.103Z,3.30
2019-01-02T07:57:23.607Z,3.70
2019-01-02T07:59:57.916Z,3.37
2019-01-02T08:03:02.518Z,3.63
2019-01-02T08:05:45.656Z,3.07
2019-01-02T08:08:42.717Z,4.90
2019-01-02T08:11:23.140Z,3.10
2019-01-02T08:14:10.968Z,2.93
2019-01-02T08:17:03.136Z,4.10
2019-01-02T08:19:53.663Z,3.87
2019-01-02T08:22:30.641Z,2.77
2019-01-02T08:25:16.804Z,2.47
2019-01-02T08:28:00.211Z,2.90
2019-01-02T08:30:37.369Z,3.00
2019-01-02T08:33:11.392Z,2.47
2019-01-02T08:35:42.929Z,2.83
2019-01-02T08:38:20.455Z,3.13
2019-01-02T08:41:18.759Z,3.73
2019-01-02T08:44:10.605Z,3.23
2019-01-02T08:46:54.076Z,2.93
2019-01-02T08:49:28.178Z,3.13
2019-01-02T08:52:08.167Z,2.87
2019-01-02T08:54:39.649Z,4.33
2019-01-02T08:57:30.423Z,2.97
2019-01-02T09:00:33.244Z,3.17
2019-01-02T09:03:27.104Z,3.07
2019-01-02T09:06:16.548Z,3.87
2019-01-02T09:09:13.492Z,3.03
2019-01-02T09:11:47.604Z,2.67
2019-01-02T09:14:45.832Z,3.33
2019-01-02T09:17:36.468Z,3.20
2019-01-02T09:20:16.352Z,3.37
2019-01-02T09:22:56.512Z,2.83
2019-01-02T09:25:47.351Z,3.13
2019-01-02T09:28:35.252Z,3.20
2019-01-02T09:31:15.412Z,2.27
2019-01-02T09:34:07.888Z,1.87
2019-01-02T09:36:51.241Z,2.93
2019-01-02T09:39:22.755Z,2.77
2019-01-02T09:42:11.847Z,3.03
2019-01-02T09:44:43.349Z,2.17
2019-01-02T09:47:32.855Z,3.30
2019-01-02T09:50:15.954Z,3.03
2019-01-02T09:52:55.757Z,2.63
2019-01-02T09:55:30.046Z,2.17
2019-01-02T09:58:22.402Z,3.07
2019-01-02T10:00:59.585Z,2.97
2019-01-02T10:03:39.908Z,4.87
2019-01-02T10:06:17.401Z,2.60
2019-01-02T10:08:57.267Z,3.13
2019-01-02T10:11:28.745Z,2.57
2019-01-02T10:14:22.669Z,1.97
2019-01-02T10:17:02.964Z,3.67
2019-01-02T10:19:45.955Z,3.43
2019-01-02T10:22:34.787Z,2.83
2019-01-02T10:25:22.640Z,2.27
2019-01-02T10:28:16.563Z,3.03
2019-01-02T10:31:05.980Z,2.33
2019-01-02T10:33:40.055Z,2.50
2019-01-02T10:36:11.543Z,2.97
2019-01-02T10:39:00.936Z,2.67
2019-01-02T10:41:44.370Z,2.47
2019-01-02T10:44:15.840Z,2.53
2019-01-02T10:46:53.002Z,3.03
2019-01-02T10:49:27.129Z,2.00
2019-01-02T10:52:29.954Z,2.00
2019-01-02T10:55:10.436Z,2.93
2019-01-02T10:57:58.267Z,3.30
2019-01-02T11:00:32.371Z,1.93
2019-01-02T11:03:15.583Z,5.33
2019-01-02T11:06:12.249Z,2.43
2019-01-02T11:08:46.717Z,3.73
2019-01-02T11:11:42.203Z,2.10
2019-01-02T11:14:35.607Z,3.20
2019-01-02T11:17:12.887Z,2.23
2019-01-02T11:20:05.275Z,2.10
2019-01-02T11:22:36.780Z,2.23
2019-01-02T11:25:22.420Z,1.90
2019-01-02T11:28:10.172Z,3.10
2019-01-02T11:31:05.652Z,2.27
2019-01-02T11:33:37.127Z,3.43
2019-01-02T11:36:26.445Z,3.27
2019-01-02T11:39:19.036Z,2.23
2019-01-02T11:41:59.109Z,3.00
2019-01-02T11:44:42.143Z,2.93
2019-01-02T11:47:10.371Z,1.70
2019-01-02T11:49:38.624Z,3.27
2019-01-02T11:52:07.085Z,1.73
2019-01-02T11:54:35.339Z,2.80
2019-01-02T11:57:03.563Z,3.83
2019-01-02T11:59:32.043Z,2.43
2019-01-02T12:02:00.310Z,3.13
2019-01-02T12:04:28.542Z,3.00
2019-01-02T12:06:56.768Z,3.03
2019-01-02T12:09:25.028Z,3.93
2019-01-02T12:11:53.257Z,2.00
2019-01-02T12:14:21.546Z,3.13
2019-01-02T12:16:49.768Z,2.20
2019-01-02T12:19:18.035Z,2.23
2019-01-02T12:21:46.268Z,2.33
2019-01-02T12:24:14.594Z,2.77
2019-01-02T12:26:42.880Z,2.13
2019-01-02T12:29:11.099Z,2.93
2019-01-02T12:31:39.343Z,2.67
2019-01-02T12:34:07.564Z,2.80
2019-01-02T12:36:35.811Z,3.53
2019-01-02T12:39:05.823Z,3.63
2019-01-02T12:41:34.086Z,2.27
2019-01-02T12:44:02.561Z,2.30
2019-01-02T12:46:30.799Z,3.03
2019-01-02T12:48:59.046Z,4.63
2019-01-02T12:51:27.279Z,3.60
2019-01-02T12:53:55.533Z,5.80
2019-01-02T12:56:23.747Z,8.00
2019-01-02T12:58:52.001Z,6.90
2019-01-02T13:01:21.052Z,7.47
2019-01-02T13:04:11.972Z,11.03
2019-01-02T13:07:04.252Z,5.00
2019-01-02T13:09:41.768Z,17.63
2019-01-02T13:12:19.460Z,12.67
2019-01-02T13:15:05.800Z,13.93
2019-01-02T13:17:48.899Z,11.10
2019-01-02T13:20:39.936Z,21.73
2019-01-02T13:23:26.388Z,39.73
2019-01-02T13:26:03.893Z,26.97
2019-01-02T13:28:38.052Z,37.97
2019-01-02T13:31:18.412Z,22.33
2019-01-02T13:33:55.688Z,25.47
2019-01-02T13:36:32.748Z,18.30
2019-01-02T13:39:04.498Z,26.50
2019-01-02T13:41:44.767Z,21.57
2019-01-02T13:44:24.927Z,19.03
2019-01-02T13:47:02.353Z,22.80
2019-01-02T13:49:48.470Z,21.57
2019-01-02T13:54:53.621Z,19.13
2019-01-02T13:57:34.696Z,16.10
2019-01-02T14:00:15.696Z,17.60
2019-01-02T14:06:02.004Z,24.87
2019-01-02T14:08:42.996Z,23.90
2019-01-02T14:11:24.159Z,21.70
2019-01-02T14:17:13.886Z,22.77
2019-01-02T14:19:54.420Z,21.17
2019-01-02T14:22:35.404Z,18.80
2019-01-02T14:25:15.700Z,23.87
2019-01-02T14:27:56.847Z,19.67
2019-01-02T14:30:37.926Z,21.20
2019-01-02T14:33:19.016Z,19.67
2019-01-02T14:35:59.335Z,17.97
2019-01-02T14:41:44.873Z,24.90
2019-01-02T14:47:34.408Z,24.60
2019-01-02T14:50:15.380Z,22.20
2019-01-02T14:52:56.713Z,26.80
2019-01-02T14:55:37.641Z,35.27
2019-01-02T14:58:18.782Z,28.50
2019-01-02T15:00:59.906Z,19.57
2019-01-02T15:03:40.643Z,27.40
2019-01-02T15:06:21.557Z,39.87
2019-01-02T15:12:10.840Z,32.50
2019-01-02T15:14:51.043Z,26.40
2019-01-02T15:17:31.565Z,28.80
2019-01-02T15:20:12.607Z,28.47
2019-01-02T15:22:53.697Z,23.20
2019-01-02T15:28:40.017Z,31.53
2019-01-02T15:31:20.826Z,41.27
2019-01-02T15:34:01.429Z,33.83
2019-01-02T15:36:41.916Z,34.37
2019-01-02T15:39:22.988Z,35.90
2019-01-02T15:42:04.133Z,37.13
2019-01-02T15:44:44.520Z,33.73
2019-01-02T15:47:25.715Z,41.50
2019-01-02T15:53:12.045Z,30.77
2019-01-02T15:55:52.656Z,31.67
2019-01-02T15:58:33.620Z,47.93
2019-01-02T16:01:14.611Z,32.90
2019-01-02T16:03:55.641Z,40.10
2019-01-02T16:06:36.409Z,35.93
2019-01-02T16:09:16.639Z,77.37
2019-01-02T16:11:57.596Z,39.23
2019-01-02T16:14:38.237Z,44.13
2019-01-02T16:17:19.227Z,31.10
2019-01-02T16:20:00.165Z,38.60
2019-01-02T16:22:40.885Z,40.70
2019-01-02T16:25:21.060Z,49.60
2019-01-02T16:28:02.222Z,41.90
2019-01-02T16:30:43.062Z,31.20
2019-01-02T16:33:23.627Z,49.07
2019-01-02T16:36:04.541Z,36.20
2019-01-02T16:38:45.037Z,34.90
2019-01-02T16:41:25.813Z,43.37
2019-01-02T16:44:06.905Z,34.80
2019-01-02T16:46:48.099Z,34.27
2019-01-02T16:49:29.158Z,39.37
2019-01-02T16:52:09.988Z,37.30
2019-01-02T16:54:50.511Z,36.67
2019-01-02T16:57:31.764Z,45.58
2019-01-02T17:00:13.734Z,37.03
2019-01-02T17:02:54.856Z,42.67
2019-01-02T17:05:36.114Z,35.83
2019-01-02T17:08:17.179Z,29.03
2019-01-02T17:10:58.468Z,38.97
2019-01-02T17:13:39.475Z,26.50
2019-01-02T17:16:20.424Z,31.13
2019-01-02T17:19:00.677Z,35.80
2019-01-02T17:21:39.378Z,27.73
2019-01-02T17:24:27.037Z,35.47
2019-01-02T17:27:14.735Z,34.97
2019-01-02T17:30:02.420Z,30.43
2019-01-02T17:32:50.208Z,27.63
2019-01-02T17:35:49.534Z,30.97
2019-01-02T17:38:27.285Z,27.73
2019-01-02T17:41:15.258Z,27.73
2019-01-02T17:44:02.923Z,32.13
2019-01-02T17:46:50.597Z,20.47
2019-01-02T17:49:38.282Z,30.80
2019-01-02T17:52:25.960Z,25.57
2019-01-02T17:55:13.653Z,30.03
2019-01-02T17:58:01.323Z,20.63
2019-01-02T18:00:49.002Z,36.57
2019-01-02T18:03:36.713Z,21.93
2019-01-02T18:06:24.720Z,23.43
2019-01-02T18:09:12.409Z,28.53
2019-01-02T18:12:00.329Z,25.83
2019-01-02T18:14:47.993Z,22.63
2019-01-02T18:17:35.675Z,24.93
2019-01-02T18:20:23.393Z,20.53
2019-01-02T18:23:11.065Z,25.10
2019-01-02T18:25:58.954Z,20.77
2019-01-02T18:28:46.654Z,21.30
2019-01-02T18:31:34.391Z,25.97
2019-01-02T18:34:22.140Z,13.37
2019-01-02T18:40:18.421Z,19.27
2019-01-02T18:43:06.082Z,17.50
2019-01-02T18:48:47.076Z,13.77
2019-01-02T18:51:35.015Z,16.63
2019-01-02T18:54:22.689Z,14.63
2019-01-02T18:57:10.360Z,17.10
2019-01-02T18:59:58.117Z,11.93
2019-01-02T19:02:45.826Z,15.60
2019-01-02T19:05:33.561Z,15.77
2019-01-02T19:08:21.299Z,11.47
2019-01-02T19:11:08.973Z,15.13
2019-01-02T19:13:56.650Z,13.87
2019-01-02T19:16:44.305Z,16.30
2019-01-02T19:19:32.293Z,13.23
2019-01-02T19:22:19.964Z,13.17
2019-01-02T19:25:07.645Z,8.07
2019-01-02T19:27:48.663Z,12.57
2019-01-02T19:30:29.569Z,10.70
2019-01-02T19:33:10.720Z,8.80
2019-01-02T19:35:51.332Z,10.20
2019-01-02T19:38:32.095Z,13.90
2019-01-02T19:41:13.009Z,10.60
2019-01-02T19:43:53.188Z,8.10
2019-01-02T19:46:34.228Z,9.37
2019-01-02T19:49:15.304Z,8.37
2019-01-02T19:51:56.138Z,11.40
2019-01-02T19:54:37.105Z,12.37
2019-01-02T19:57:18.132Z,11.93
2019-01-02T19:59:56.799Z,9.23
2019-01-02T20:02:44.469Z,11.80
2019-01-02T20:05:32.119Z,9.47
2019-01-02T20:08:19.899Z,12.33
2019-01-02T20:11:08.033Z,9.97
2019-01-02T20:13:55.714Z,7.63
2019-01-02T20:16:43.367Z,11.13
2019-01-02T20:19:31.064Z,12.17
2019-01-02T20:22:18.748Z,10.17
2019-01-02T20:25:06.605Z,7.37
2019-01-02T20:27:47.472Z,9.27
2019-01-02T20:30:28.284Z,8.93
2019-01-02T20:33:09.141Z,6.03
2019-01-02T20:35:50.538Z,7.90
2019-01-02T20:38:31.058Z,9.27
2019-01-02T20:41:12.207Z,6.60
2019-01-02T20:43:53.477Z,7.13
2019-01-02T20:46:34.417Z,9.77
2019-01-02T20:49:15.551Z,6.90
2019-01-02T20:51:56.694Z,6.43
2019-01-02T20:54:37.765Z,6.17
2019-01-02T20:57:18.681Z,8.20
2019-01-02T20:59:59.583Z,8.70
2019-01-02T21:02:40.503Z,7.50
2019-01-02T21:05:21.650Z,6.20
2019-01-02T21:08:02.048Z,6.37
2019-01-02T21:10:42.249Z,5.57
2019-01-02T21:13:23.240Z,4.50
2019-01-02T21:16:04.196Z,4.67
2019-01-02T21:18:45.312Z,6.73
2019-01-02T21:21:26.168Z,6.67
2019-01-02T21:24:07.210Z,9.43
2019-01-02T21:26:47.705Z,5.43
2019-01-02T21:29:28.789Z,5.10
2019-01-02T21:32:09.697Z,6.60
2019-01-02T21:34:50.797Z,6.30
2019-01-02T21:37:31.446Z,6.10
2019-01-02T21:40:12.665Z,6.70
2019-01-02T21:42:53.444Z,5.30
2019-01-02T21:45:34.682Z,6.93
2019-01-02T21:48:15.676Z,6.07
2019-01-02T21:50:55.932Z,4.87
2019-01-02T21:53:36.979Z,6.90
2019-01-02T21:56:18.077Z,4.53
2019-01-02T21:58:59.280Z,5.23
2019-01-02T22:01:39.965Z,5.83
2019-01-02T22:04:21.043Z,4.33
2019-01-02T22:07:01.638Z,3.93
2019-01-02T22:09:42.188Z,5.43
2019-01-02T22:12:22.414Z,5.97
2019-01-02T22:15:03.168Z,5.40
2019-01-02T22:17:43.604Z,4.67
2019-01-02T22:23:33.132Z,5.83
2019-01-02T22:26:14.069Z,4.10
2019-01-02T22:32:00.394Z,3.27
2019-01-02T22:34:40.649Z,4.67
2019-01-02T22:37:21.705Z,3.93
2019-01-02T22:40:02.763Z,3.00
2019-01-02T22:42:43.737Z,5.40
2019-01-02T22:45:24.759Z,4.30
2019-01-02T22:48:05.884Z,3.43
2019-01-02T22:50:46.907Z,5.23
2019-01-02T22:53:27.980Z,3.93
2019-01-02T22:56:06.867Z,4.07
2019-01-02T22:58:54.591Z,2.40
2019-01-02T23:11:28.785Z,3.60
2019-01-02T23:14:28.922Z,4.33
2019-01-02T23:17:14.050Z,3.57
2019-01-02T23:20:14.421Z,2.53
2019-01-02T23:29:27.333Z,4.57
2019-01-02T23:32:27.139Z,2.87
2019-01-02T23:38:45.639Z,3.40
2019-01-02T23:41:45.256Z,6.60
2019-01-02T23:47:38.329Z,2.57
2019-01-02T23:53:42.658Z,3.17
2019-01-02T23:56:42.716Z,3.77
